createdAt,value
2022-12-01T00:01:07.231Z,34.30
2022-12-01T00:03:34.117Z,37.10
2022-12-01T00:06:01.668Z,38.07
2022-12-01T00:08:30.037Z,34.57
2022-12-01T00:11:03.446Z,34.60
2022-12-01T00:13:30.103Z,34.67
2022-12-01T00:15:56.659Z,37.37
2022-12-01T00:18:23.187Z,36.60
2022-12-01T00:20:55.889Z,37.40
2022-12-01T00:23:23.181Z,35.00
2022-12-01T00:25:51.090Z,37.07
2022-12-01T00:28:17.670Z,36.27
2022-12-01T00:30:44.321Z,35.30
2022-12-01T00:33:10.899Z,33.90
2022-12-01T00:35:37.423Z,31.07
2022-12-01T00:38:03.980Z,33.33
2022-12-01T00:40:30.513Z,35.30
2022-12-01T00:42:58.380Z,37.17
2022-12-01T00:45:24.918Z,32.23
2022-12-01T00:47:51.449Z,32.37
2022-12-01T00:50:17.975Z,33.90
2022-12-01T00:52:44.505Z,31.13
2022-12-01T00:55:11.158Z,33.73
2022-12-01T00:57:37.751Z,31.90
2022-12-01T01:00:07.075Z,36.27
2022-12-01T01:02:33.693Z,32.80
2022-12-01T01:05:00.273Z,31.30
2022-12-01T01:07:26.834Z,33.47
2022-12-01T01:09:53.392Z,33.43
2022-12-01T01:12:19.936Z,33.80
2022-12-01T01:14:46.451Z,31.53
2022-12-01T01:17:14.317Z,31.43
2022-12-01T01:19:40.829Z,35.60
2022-12-01T01:22:07.364Z,32.43
2022-12-01T01:24:33.891Z,29.83
2022-12-01T01:27:00.489Z,30.90
2022-12-01T01:29:27.035Z,32.47
2022-12-01T01:31:53.588Z,37.13
2022-12-01T01:34:21.461Z,31.83
2022-12-01T01:36:48.534Z,31.50
2022-12-01T01:39:15.187Z,29.43
2022-12-01T01:41:42.005Z,35.30
2022-12-01T01:44:41.863Z,30.50
2022-12-01T01:47:08.474Z,35.07
2022-12-01T01:49:36.555Z,33.73
2022-12-01T01:52:04.551Z,34.37
2022-12-01T01:54:35.787Z,31.73
2022-12-01T01:57:05.241Z,33.93
2022-12-01T01:59:36.296Z,33.63
2022-12-01T02:02:08.876Z,33.87
2022-12-01T02:04:40.249Z,31.30
2022-12-01T02:07:08.323Z,32.07
2022-12-01T02:09:36.172Z,31.70
2022-12-01T02:12:16.127Z,34.40
2022-12-01T02:15:03.774Z,31.63
2022-12-01T02:17:41.512Z,33.03
2022-12-01T02:20:44.982Z,33.07
2022-12-01T02:23:41.540Z,32.80
2022-12-01T02:26:25.613Z,31.67
2022-12-01T02:29:11.106Z,33.30
2022-12-01T02:31:47.039Z,29.27
2022-12-01T02:34:19.349Z,30.07
2022-12-01T02:36:52.654Z,31.43
2022-12-01T02:39:26.963Z,27.83
2022-12-01T02:41:59.263Z,30.63
2022-12-01T02:44:32.357Z,29.07
2022-12-01T02:47:05.258Z,32.07
2022-12-01T02:49:36.155Z,34.20
2022-12-01T02:52:05.989Z,28.90
2022-12-01T02:54:33.637Z,34.53
2022-12-01T02:57:00.183Z,29.13
2022-12-01T02:59:26.739Z,32.70
2022-12-01T03:02:06.061Z,30.10
2022-12-01T03:04:53.010Z,31.52
2022-12-01T03:07:38.335Z,29.40
2022-12-01T03:10:15.288Z,29.77
2022-12-01T03:12:55.762Z,25.90
2022-12-01T03:15:33.954Z,30.63
2022-12-01T03:18:10.093Z,29.50
2022-12-01T03:20:41.210Z,39.03
2022-12-01T03:23:10.811Z,27.20
2022-12-01T03:25:41.820Z,28.85
2022-12-01T03:28:21.313Z,31.47
2022-12-01T03:30:52.416Z,31.07
2022-12-01T03:33:26.403Z,28.63
2022-12-01T03:35:57.790Z,26.97
2022-12-01T03:38:26.318Z,30.63
2022-12-01T03:40:58.226Z,27.83
2022-12-01T03:43:30.277Z,29.90
2022-12-01T03:46:03.263Z,30.90
2022-12-01T03:48:31.686Z,30.50
2022-12-01T03:51:06.648Z,32.87
2022-12-01T03:53:39.980Z,25.47
2022-12-01T03:56:07.738Z,27.40
2022-12-01T03:58:38.341Z,28.33
2022-12-01T04:01:07.149Z,32.60
2022-12-01T04:03:35.166Z,36.97
2022-12-01T04:06:01.719Z,27.60
2022-12-01T04:08:30.590Z,31.33
2022-12-01T04:10:57.368Z,32.55
2022-12-01T04:13:23.967Z,28.90
2022-12-01T04:15:51.304Z,32.43
2022-12-01T04:18:18.406Z,30.53
2022-12-01T04:20:47.011Z,30.00
2022-12-01T04:23:33.744Z,28.13
2022-12-01T04:26:01.118Z,30.90
2022-12-01T04:28:27.649Z,29.17
2022-12-01T04:30:54.428Z,29.17
2022-12-01T04:33:21.763Z,27.70
2022-12-01T04:35:57.716Z,28.37
2022-12-01T04:38:30.059Z,28.57
2022-12-01T04:40:57.246Z,29.30
2022-12-01T04:43:23.806Z,30.87
2022-12-01T04:45:50.319Z,29.40
2022-12-01T04:48:16.897Z,30.07
2022-12-01T04:50:43.434Z,30.50
2022-12-01T04:53:11.273Z,28.17
2022-12-01T04:55:39.093Z,29.23
2022-12-01T04:58:05.728Z,28.17
2022-12-01T05:00:32.373Z,29.43
2022-12-01T05:02:59.768Z,27.20
2022-12-01T05:05:26.457Z,29.90
2022-12-01T05:07:53.006Z,27.63
2022-12-01T05:10:21.501Z,30.00
2022-12-01T05:12:48.063Z,29.33
2022-12-01T05:15:14.644Z,28.27
2022-12-01T05:17:41.402Z,26.90
2022-12-01T05:20:37.806Z,31.87
2022-12-01T05:23:06.036Z,29.80
2022-12-01T05:25:34.650Z,28.37
2022-12-01T05:28:01.184Z,34.93
2022-12-01T05:30:28.930Z,31.33
2022-12-01T05:32:55.809Z,27.03
2022-12-01T05:35:22.596Z,27.50
2022-12-01T05:37:49.158Z,27.60
2022-12-01T05:40:15.936Z,27.57
2022-12-01T05:42:43.808Z,27.53
2022-12-01T05:45:10.982Z,26.87
2022-12-01T05:47:37.502Z,28.40
2022-12-01T05:50:05.967Z,31.33
2022-12-01T05:52:34.098Z,31.83
2022-12-01T05:55:00.656Z,30.80
2022-12-01T05:57:27.193Z,29.27
2022-12-01T05:59:55.289Z,29.17
2022-12-01T06:02:21.884Z,29.10
2022-12-01T06:04:48.480Z,28.40
2022-12-01T06:07:15.006Z,29.93
2022-12-01T06:09:41.527Z,28.53
2022-12-01T06:12:08.058Z,33.43
2022-12-01T06:14:34.571Z,26.57
2022-12-01T06:17:02.514Z,27.97
2022-12-01T06:19:29.122Z,29.63
2022-12-01T06:21:55.668Z,30.50
2022-12-01T06:24:22.218Z,28.27
2022-12-01T06:26:48.885Z,27.97
2022-12-01T06:29:15.711Z,26.47
2022-12-01T06:31:42.323Z,26.93
2022-12-01T06:34:10.638Z,26.73
2022-12-01T06:36:37.203Z,28.73
2022-12-01T06:39:06.521Z,29.87
2022-12-01T06:41:33.039Z,26.30
2022-12-01T06:44:01.015Z,28.27
2022-12-01T06:46:27.657Z,27.87
2022-12-01T06:48:54.343Z,28.60
2022-12-01T06:51:22.379Z,28.27
2022-12-01T06:53:53.459Z,31.13
2022-12-01T06:56:20.573Z,30.20
2022-12-01T06:58:48.567Z,27.77
2022-12-01T07:01:16.075Z,31.30
2022-12-01T07:03:43.018Z,28.63
2022-12-01T07:06:09.818Z,28.37
2022-12-01T07:08:37.702Z,27.30
2022-12-01T07:11:05.804Z,28.07
2022-12-01T07:13:33.946Z,27.03
2022-12-01T07:16:01.595Z,28.60
2022-12-01T07:18:28.779Z,28.83
2022-12-01T07:20:59.051Z,29.10
2022-12-01T07:23:25.565Z,27.43
2022-12-01T07:25:59.693Z,31.10
2022-12-01T07:28:26.905Z,29.13
2022-12-01T07:30:53.504Z,30.30
2022-12-01T07:33:20.243Z,41.60
2022-12-01T07:35:46.785Z,39.50
2022-12-01T07:38:17.777Z,29.63
2022-12-01T07:40:47.159Z,45.63
2022-12-01T07:43:15.058Z,29.33
2022-12-01T07:45:41.621Z,43.17
2022-12-01T07:48:08.203Z,37.23
2022-12-01T07:50:34.708Z,28.63
2022-12-01T07:53:01.242Z,35.87
2022-12-01T07:55:27.789Z,49.00
2022-12-01T07:57:54.325Z,48.90
2022-12-01T08:00:22.692Z,50.17
2022-12-01T08:02:49.453Z,46.00
2022-12-01T08:05:16.182Z,43.97
2022-12-01T08:07:42.708Z,43.53
2022-12-01T08:10:10.113Z,48.07
2022-12-01T08:12:36.646Z,45.03
2022-12-01T08:15:03.558Z,52.90
2022-12-01T08:17:31.428Z,45.33
2022-12-01T08:19:57.924Z,45.80
2022-12-01T08:22:24.470Z,43.23
2022-12-01T08:24:50.987Z,47.90
2022-12-01T08:27:17.504Z,51.03
2022-12-01T08:29:44.056Z,49.97
2022-12-01T08:32:10.613Z,43.87
2022-12-01T08:34:38.769Z,42.70
2022-12-01T08:37:05.304Z,48.50
2022-12-01T08:39:31.843Z,55.47
2022-12-01T08:41:58.454Z,53.20
2022-12-01T08:44:25.050Z,51.50
2022-12-01T08:46:51.730Z,52.83
2022-12-01T08:49:18.280Z,42.90
2022-12-01T08:51:46.144Z,49.93
2022-12-01T08:54:12.693Z,44.00
2022-12-01T08:56:41.211Z,44.43
2022-12-01T08:59:08.528Z,42.37
2022-12-01T09:01:35.861Z,41.17
2022-12-01T09:04:06.172Z,42.47
2022-12-01T09:06:34.988Z,51.33
2022-12-01T09:09:02.919Z,52.67
2022-12-01T09:11:29.469Z,51.53
2022-12-01T09:13:56.019Z,48.53
2022-12-01T09:16:22.587Z,51.03
2022-12-01T09:18:49.304Z,57.63
2022-12-01T09:21:17.869Z,54.00
2022-12-01T09:23:44.745Z,49.73
2022-12-01T09:26:17.997Z,46.13
2022-12-01T09:28:44.736Z,49.20
2022-12-01T09:31:12.980Z,52.93
2022-12-01T09:33:39.982Z,46.13
2022-12-01T09:36:08.368Z,43.63
2022-12-01T09:38:36.430Z,46.30
2022-12-01T09:41:07.023Z,48.00
2022-12-01T09:43:41.416Z,45.33
2022-12-01T09:46:14.387Z,44.47
2022-12-01T09:48:44.896Z,45.20
2022-12-01T09:51:14.445Z,52.77
2022-12-01T09:53:41.911Z,52.35
2022-12-01T09:56:18.404Z,51.30
2022-12-01T09:58:50.725Z,47.87
2022-12-01T10:01:23.036Z,48.00
2022-12-01T10:03:57.670Z,46.30
2022-12-01T10:06:32.158Z,39.00
2022-12-01T10:09:07.958Z,44.57
2022-12-01T10:11:36.901Z,43.33
2022-12-01T10:14:16.414Z,45.75
2022-12-01T10:16:55.622Z,43.80
2022-12-01T10:19:28.603Z,43.43
2022-12-01T10:22:15.038Z,43.97
2022-12-01T10:24:53.173Z,46.90
2022-12-01T10:27:35.090Z,38.83
2022-12-01T10:30:06.955Z,43.10
2022-12-01T10:32:44.906Z,41.10
2022-12-01T10:35:15.279Z,41.30
2022-12-01T10:37:45.447Z,45.93
2022-12-01T10:40:14.540Z,47.67
2022-12-01T10:42:42.874Z,45.40
2022-12-01T10:45:16.786Z,45.00
2022-12-01T10:48:08.692Z,42.80
2022-12-01T10:50:36.391Z,44.67
2022-12-01T10:53:03.712Z,39.10
2022-12-01T10:55:35.010Z,40.07
2022-12-01T10:58:12.927Z,41.37
2022-12-01T11:00:59.661Z,39.67
2022-12-01T11:03:30.277Z,41.80
2022-12-01T11:06:00.924Z,39.50
2022-12-01T11:08:36.294Z,40.40
2022-12-01T11:11:03.301Z,39.83
2022-12-01T11:13:33.969Z,40.27
2022-12-01T11:16:04.736Z,41.50
2022-12-01T11:18:33.589Z,45.17
2022-12-01T11:21:08.988Z,44.17
2022-12-01T11:23:37.617Z,39.97
2022-12-01T11:26:13.351Z,39.37
2022-12-01T11:28:50.672Z,34.03
2022-12-01T11:31:20.531Z,37.23
2022-12-01T11:33:51.023Z,36.27
2022-12-01T11:36:25.823Z,32.60
2022-12-01T11:38:57.404Z,35.93
2022-12-01T11:41:31.339Z,37.97
2022-12-01T11:44:02.100Z,35.87
2022-12-01T11:46:36.968Z,34.80
2022-12-01T11:49:04.080Z,38.97
2022-12-01T11:51:37.017Z,30.93
2022-12-01T11:54:16.627Z,32.43
2022-12-01T11:56:44.572Z,38.03
2022-12-01T11:59:13.584Z,33.83
2022-12-01T12:01:53.133Z,33.60
2022-12-01T12:04:40.083Z,36.10
2022-12-01T12:07:13.386Z,38.77
2022-12-01T12:10:01.724Z,35.17
2022-12-01T12:12:43.453Z,33.53
2022-12-01T12:15:25.880Z,34.27
2022-12-01T12:18:14.018Z,33.63
2022-12-01T12:20:54.619Z,34.27
2022-12-01T12:23:36.399Z,33.60
2022-12-01T12:26:09.681Z,33.00
2022-12-01T12:28:52.551Z,33.03
2022-12-01T12:31:28.151Z,33.17
2022-12-01T12:34:10.823Z,34.47
2022-12-01T12:36:43.748Z,31.63
2022-12-01T12:39:28.405Z,32.87
2022-12-01T12:41:57.023Z,35.03
2022-12-01T12:44:46.300Z,31.40
2022-12-01T12:47:25.478Z,33.85
2022-12-01T12:50:03.071Z,29.65
2022-12-01T12:52:33.443Z,33.77
2022-12-01T12:55:10.874Z,30.60
2022-12-01T12:57:43.479Z,29.50
2022-12-01T13:00:15.963Z,29.37
2022-12-01T13:02:47.148Z,32.67
2022-12-01T13:05:20.563Z,32.43
2022-12-01T13:07:52.141Z,31.87
2022-12-01T13:10:28.246Z,29.03
2022-12-01T13:13:00.541Z,33.57
2022-12-01T13:15:28.815Z,31.23
2022-12-01T13:17:58.416Z,33.23
2022-12-01T13:20:29.125Z,34.10
2022-12-01T13:22:57.689Z,30.17
2022-12-01T13:25:28.207Z,30.87
2022-12-01T13:27:56.511Z,30.77
2022-12-01T13:30:26.060Z,29.57
2022-12-01T13:33:00.921Z,28.08
2022-12-01T13:35:31.036Z,29.80
2022-12-01T13:38:22.165Z,31.20
2022-12-01T13:40:49.689Z,30.13
2022-12-01T13:43:19.617Z,31.57
2022-12-01T13:45:47.920Z,29.67
2022-12-01T13:48:29.799Z,29.70
2022-12-01T13:51:00.610Z,30.33
2022-12-01T13:53:30.226Z,29.80
2022-12-01T13:55:59.916Z,30.10
2022-12-01T14:01:43.633Z,28.23
2022-12-01T14:04:28.800Z,28.37
2022-12-01T14:07:23.680Z,28.83
2022-12-01T14:09:54.136Z,30.37
2022-12-01T14:12:24.197Z,30.93
2022-12-01T14:14:54.943Z,26.83
2022-12-01T14:17:28.903Z,31.83
2022-12-01T14:20:04.908Z,28.80
2022-12-01T14:22:36.749Z,30.90
2022-12-01T14:25:07.556Z,28.80
2022-12-01T14:27:37.035Z,29.27
2022-12-01T14:30:50.243Z,26.73
2022-12-01T14:33:46.412Z,25.10
2022-12-01T14:36:27.051Z,30.07
2022-12-01T14:39:03.360Z,28.00
2022-12-01T14:41:33.296Z,26.97
2022-12-01T14:44:05.821Z,27.80
2022-12-01T14:46:40.999Z,25.97
2022-12-01T14:49:14.087Z,30.03
2022-12-01T14:51:46.050Z,28.30
2022-12-01T14:54:20.944Z,28.70
2022-12-01T14:56:51.237Z,30.47
2022-12-01T14:59:22.007Z,27.47
2022-12-01T15:01:51.483Z,26.50
2022-12-01T15:04:18.515Z,28.02
2022-12-01T15:06:45.488Z,30.23
2022-12-01T15:12:04.726Z,28.38
2022-12-01T15:14:33.612Z,28.77
2022-12-01T15:17:02.623Z,31.30
2022-12-01T15:19:35.902Z,27.23
2022-12-01T15:22:06.520Z,30.93
2022-12-01T15:24:34.031Z,26.57
2022-12-01T15:27:04.037Z,29.10
2022-12-01T15:29:33.004Z,27.67
2022-12-01T15:32:01.419Z,28.00
2022-12-01T15:34:31.719Z,29.57
2022-12-01T15:36:59.718Z,25.13
2022-12-01T15:39:32.545Z,27.00
2022-12-01T15:42:00.041Z,26.40
2022-12-01T15:44:31.519Z,26.37
2022-12-01T15:46:58.325Z,25.50
2022-12-01T15:49:30.066Z,25.30
2022-12-01T15:52:06.210Z,28.30
2022-12-01T15:54:33.297Z,29.50
2022-12-01T15:57:00.788Z,25.70
2022-12-01T15:59:33.230Z,27.33
2022-12-01T16:02:05.515Z,28.00
2022-12-01T16:04:32.360Z,27.87
2022-12-01T16:07:01.851Z,26.77
2022-12-01T16:09:31.556Z,24.75
2022-12-01T16:12:23.506Z,24.42
2022-12-01T16:14:55.043Z,25.77
2022-12-01T16:17:22.973Z,26.23
2022-12-01T16:20:21.654Z,26.97
2022-12-01T16:22:52.573Z,23.13
2022-12-01T16:25:27.580Z,23.43
2022-12-01T16:27:56.879Z,26.27
2022-12-01T16:30:27.274Z,29.35
2022-12-01T16:33:01.780Z,23.50
2022-12-01T16:35:30.462Z,25.23
2022-12-01T16:37:58.075Z,24.07
2022-12-01T16:40:25.480Z,24.13
2022-12-01T16:42:52.228Z,23.90
2022-12-01T16:45:19.775Z,24.93
2022-12-01T16:47:48.546Z,25.80
2022-12-01T16:50:16.488Z,24.02
2022-12-01T16:52:44.696Z,28.07
2022-12-01T16:55:25.706Z,25.42
2022-12-01T16:57:52.287Z,21.97
2022-12-01T17:00:19.522Z,20.50
2022-12-01T17:02:47.491Z,26.73
2022-12-01T17:05:14.139Z,24.30
2022-12-01T17:07:40.708Z,23.83
2022-12-01T17:10:08.438Z,21.33
2022-12-01T17:12:34.947Z,25.03
2022-12-01T17:15:01.551Z,24.27
2022-12-01T17:17:28.508Z,23.10
2022-12-01T17:19:56.557Z,26.17
2022-12-01T17:22:23.291Z,22.27
2022-12-01T17:24:50.044Z,23.53
2022-12-01T17:27:16.858Z,23.33
2022-12-01T17:29:46.222Z,25.87
2022-12-01T17:34:40.239Z,23.03
2022-12-01T17:37:08.241Z,22.53
2022-12-01T17:39:34.789Z,23.60
2022-12-01T17:42:01.407Z,26.10
2022-12-01T17:44:28.137Z,23.13
2022-12-01T17:46:54.703Z,23.23
2022-12-01T17:49:21.426Z,22.13
2022-12-01T17:51:47.985Z,25.17
2022-12-01T17:54:15.964Z,24.80
2022-12-01T17:56:42.713Z,22.57
2022-12-01T17:59:09.275Z,22.13
2022-12-01T18:01:35.953Z,21.93
2022-12-01T18:04:02.602Z,23.83
2022-12-01T18:06:29.377Z,22.03
2022-12-01T18:08:57.360Z,20.37
2022-12-01T18:11:25.261Z,22.17
2022-12-01T18:13:52.438Z,22.00
2022-12-01T18:16:21.390Z,22.00
2022-12-01T18:18:48.447Z,19.33
2022-12-01T18:21:17.174Z,22.90
2022-12-01T18:23:49.201Z,25.57
2022-12-01T18:26:16.457Z,20.37
2022-12-01T18:28:44.565Z,24.23
2022-12-01T18:31:13.943Z,21.97
2022-12-01T18:33:42.504Z,21.50
2022-12-01T18:36:12.050Z,20.57
2022-12-01T18:38:39.407Z,20.35
2022-12-01T18:41:06.059Z,20.13
2022-12-01T18:43:33.311Z,22.80
2022-12-01T18:46:03.104Z,22.20
2022-12-01T18:50:59.494Z,22.23
2022-12-01T18:53:26.277Z,23.30
2022-12-01T18:55:52.796Z,22.70
2022-12-01T18:58:19.335Z,23.43
2022-12-01T19:00:45.932Z,22.93
2022-12-01T19:03:14.107Z,21.73
2022-12-01T19:05:41.282Z,21.90
2022-12-01T19:08:08.079Z,20.33
2022-12-01T19:10:34.657Z,21.90
2022-12-01T19:13:01.184Z,21.47
2022-12-01T19:15:27.723Z,22.60
2022-12-01T19:17:54.965Z,21.50
2022-12-01T19:20:22.858Z,21.17
2022-12-01T19:22:49.425Z,21.77
2022-12-01T19:25:15.990Z,20.63
2022-12-01T19:27:42.663Z,23.40
2022-12-01T19:30:10.214Z,28.97
2022-12-01T19:32:36.992Z,31.83
2022-12-01T19:35:04.740Z,27.37
2022-12-01T19:37:32.633Z,27.90
2022-12-01T19:39:59.160Z,31.53
2022-12-01T19:42:26.098Z,27.03
2022-12-01T19:44:52.851Z,28.73
2022-12-01T19:47:22.355Z,26.60
2022-12-01T19:52:15.993Z,28.27
2022-12-01T19:54:43.875Z,30.30
2022-12-01T19:57:10.480Z,24.77
2022-12-01T19:59:37.049Z,23.70
2022-12-01T20:02:03.639Z,26.27
2022-12-01T20:04:30.374Z,25.67
2022-12-01T20:06:56.920Z,27.43
2022-12-01T20:09:23.490Z,26.27
2022-12-01T20:11:51.450Z,28.73
2022-12-01T20:14:18.121Z,25.73
2022-12-01T20:16:44.745Z,28.10
2022-12-01T20:19:11.376Z,23.20
2022-12-01T20:21:42.369Z,27.03
2022-12-01T20:24:12.759Z,23.27
2022-12-01T20:26:42.016Z,25.53
2022-12-01T20:29:11.868Z,23.52
2022-12-01T20:31:38.884Z,24.73
2022-12-01T20:34:07.920Z,24.50
2022-12-01T20:36:34.931Z,25.48
2022-12-01T20:39:01.593Z,25.80
2022-12-01T20:41:28.225Z,24.17
2022-12-01T20:43:54.763Z,23.40
2022-12-01T20:46:22.970Z,23.63
2022-12-01T20:48:49.616Z,23.90
2022-12-01T20:51:16.263Z,23.53
2022-12-01T20:53:59.706Z,21.77
2022-12-01T20:56:29.519Z,23.33
2022-12-01T20:58:56.073Z,23.40
2022-12-01T21:01:24.024Z,24.20
2022-12-01T21:03:53.867Z,23.07
2022-12-01T21:08:49.078Z,23.50
2022-12-01T21:11:18.907Z,25.07
2022-12-01T21:13:46.430Z,22.10
2022-12-01T21:16:26.305Z,23.03
2022-12-01T21:18:55.400Z,22.00
2022-12-01T21:21:24.818Z,20.63
2022-12-01T21:24:11.262Z,21.73
2022-12-01T21:26:39.397Z,24.03
2022-12-01T21:29:17.264Z,22.43
2022-12-01T21:31:45.481Z,22.87
2022-12-01T21:34:17.198Z,21.43
2022-12-01T21:36:44.414Z,19.83
2022-12-01T21:39:14.435Z,21.10
2022-12-01T21:41:41.120Z,23.47
2022-12-01T21:44:13.343Z,19.57
2022-12-01T21:46:41.983Z,23.90
2022-12-01T21:49:19.780Z,20.80
2022-12-01T21:51:47.663Z,24.33
2022-12-01T21:54:18.740Z,20.77
2022-12-01T21:56:45.515Z,21.03
2022-12-01T21:59:18.911Z,22.83
2022-12-01T22:01:46.111Z,21.60
2022-12-01T22:04:19.271Z,19.23
2022-12-01T22:06:48.936Z,20.50
2022-12-01T22:09:23.100Z,22.10
2022-12-01T22:11:52.935Z,21.97
2022-12-01T22:14:22.049Z,22.50
2022-12-01T22:16:52.969Z,21.83
2022-12-01T22:19:27.436Z,24.77
2022-12-01T22:22:00.612Z,21.57
2022-12-01T22:24:29.436Z,23.20
2022-12-01T22:27:11.549Z,20.92
2022-12-01T22:29:41.777Z,23.77
2022-12-01T22:32:44.021Z,20.30
2022-12-01T22:35:22.033Z,20.13
2022-12-01T22:37:50.703Z,23.53
2022-12-01T22:40:32.187Z,21.20
2022-12-01T22:43:00.191Z,23.33
2022-12-01T22:45:26.818Z,20.50
2022-12-01T22:47:56.430Z,23.33
2022-12-01T22:50:28.391Z,18.55
2022-12-01T22:52:59.041Z,20.97
2022-12-01T22:55:25.647Z,21.37
2022-12-01T22:57:52.377Z,18.53
2022-12-01T23:00:22.896Z,21.17
2022-12-01T23:02:50.875Z,20.27
2022-12-01T23:05:23.286Z,19.43
2022-12-01T23:07:52.692Z,20.17
2022-12-01T23:10:22.225Z,20.45
2022-12-01T23:12:50.951Z,18.92
2022-12-01T23:15:25.544Z,21.83
2022-12-01T23:17:52.488Z,19.87
2022-12-01T23:20:31.735Z,21.17
2022-12-01T23:23:02.207Z,20.88
2022-12-01T23:25:29.728Z,19.83
2022-12-01T23:27:59.948Z,19.10
2022-12-01T23:30:27.176Z,18.37
2022-12-01T23:33:11.588Z,20.77
2022-12-01T23:35:41.307Z,23.73
2022-12-01T23:40:40.778Z,22.70
2022-12-01T23:43:14.888Z,20.23
2022-12-01T23:45:41.443Z,17.43
2022-12-01T23:48:18.070Z,22.33
2022-12-01T23:50:45.464Z,19.37
2022-12-01T23:53:26.461Z,18.33
2022-12-01T23:55:53.329Z,20.07
2022-12-01T23:58:20.052Z,20.63
